createdAt,value
2023-03-06T00:02:42.031Z,99753.88
2023-03-06T00:05:44.878Z,99753.06
2023-03-06T00:08:47.529Z,99754.22
2023-03-06T00:11:50.111Z,99749.34
2023-03-06T00:14:52.681Z,99764.13
2023-03-06T00:17:56.538Z,99725.59
2023-03-06T00:20:59.319Z,99747.25
2023-03-06T00:24:01.929Z,99741.63
2023-03-06T00:27:04.756Z,99745.44
2023-03-06T00:30:14.237Z,99753.56
2023-03-06T00:33:17.993Z,99746.69
2023-03-06T00:36:20.756Z,99745.25
2023-03-06T00:39:23.683Z,99743.25
2023-03-06T00:42:26.146Z,99746.50
2023-03-06T00:45:28.847Z,99736.44
2023-03-06T00:48:33.119Z,99733.72
2023-03-06T00:51:35.712Z,99726.94
2023-03-06T00:54:38.349Z,99733.44
2023-03-06T00:57:41.003Z,99725.13
2023-03-06T01:00:43.851Z,99705.41
2023-03-06T01:03:46.426Z,99717.16
2023-03-06T01:06:49.491Z,99717.66
2023-03-06T01:09:52.036Z,99701.63
2023-03-06T01:12:55.166Z,99682.66
2023-03-06T01:16:06.965Z,99692.25
2023-03-06T01:19:09.813Z,99688.53
2023-03-06T01:22:12.408Z,99678.69
2023-03-06T01:25:15.114Z,99683.13
2023-03-06T01:28:18.487Z,99684.69
2023-03-06T01:31:21.038Z,99674.00
2023-03-06T01:34:23.682Z,99668.69
2023-03-06T01:37:26.202Z,99670.41
2023-03-06T01:40:31.899Z,99671.13
2023-03-06T01:43:39.564Z,99669.97
2023-03-06T01:46:43.904Z,99671.09
2023-03-06T01:49:46.435Z,99664.25
2023-03-06T01:52:52.610Z,99667.66
2023-03-06T01:55:55.423Z,99660.50
2023-03-06T01:58:58.519Z,99644.69
2023-03-06T02:02:02.971Z,99659.44
2023-03-06T02:05:06.954Z,99664.88
2023-03-06T02:08:14.987Z,99666.06
2023-03-06T02:11:20.627Z,99666.34
2023-03-06T02:14:23.551Z,99664.28
2023-03-06T02:17:27.097Z,99660.84
2023-03-06T02:20:38.249Z,99641.63
2023-03-06T02:23:48.147Z,99647.13
2023-03-06T02:26:51.468Z,99635.91
2023-03-06T02:29:55.001Z,99640.41
2023-03-06T02:32:58.394Z,99636.94
2023-03-06T02:36:04.106Z,99626.53
2023-03-06T02:39:06.956Z,99630.34
2023-03-06T02:42:10.628Z,99613.72
2023-03-06T02:45:14.318Z,99621.13
2023-03-06T02:48:18.579Z,99616.44
2023-03-06T02:51:21.872Z,99630.09
2023-03-06T02:54:25.339Z,99629.72
2023-03-06T02:57:27.875Z,99626.25
2023-03-06T03:00:32.885Z,99629.41
2023-03-06T03:03:38.206Z,99623.22
2023-03-06T03:06:41.058Z,99629.81
2023-03-06T03:09:43.724Z,99621.13
2023-03-06T03:12:46.647Z,99633.69
2023-03-06T03:16:11.389Z,99622.56
2023-03-06T03:19:14.446Z,99627.19
2023-03-06T03:22:19.063Z,99622.56
2023-03-06T03:25:25.278Z,99618.41
2023-03-06T03:28:30.709Z,99611.00
2023-03-06T03:31:33.447Z,99612.41
2023-03-06T03:34:37.537Z,99610.19
2023-03-06T03:37:41.714Z,99611.59
2023-03-06T03:40:44.964Z,99609.16
2023-03-06T03:43:47.797Z,99587.78
2023-03-06T03:46:50.933Z,99611.78
2023-03-06T03:49:57.110Z,99606.00
2023-03-06T03:53:00.657Z,99602.50
2023-03-06T03:56:04.006Z,99603.13
2023-03-06T03:59:08.994Z,99591.91
2023-03-06T04:02:18.431Z,99607.59
2023-03-06T04:05:28.798Z,99609.94
2023-03-06T04:08:32.012Z,99614.63
2023-03-06T04:11:34.556Z,99619.13
2023-03-06T04:14:37.202Z,99619.25
2023-03-06T04:17:40.428Z,99610.44
2023-03-06T04:20:48.217Z,99612.81
2023-03-06T04:23:50.914Z,99608.47
2023-03-06T04:26:53.617Z,99598.34
2023-03-06T04:29:56.586Z,99598.78
2023-03-06T04:32:59.565Z,99606.34
2023-03-06T04:36:02.833Z,99603.91
2023-03-06T04:39:07.774Z,99602.50
2023-03-06T04:42:10.867Z,99599.69
2023-03-06T04:45:13.925Z,99591.63
2023-03-06T04:48:18.374Z,99594.06
2023-03-06T04:51:21.239Z,99588.06
2023-03-06T04:54:23.734Z,99573.34
2023-03-06T04:57:26.352Z,99586.53
2023-03-06T05:00:32.131Z,99582.66
2023-03-06T05:03:34.858Z,99575.13
2023-03-06T05:06:37.403Z,99569.91
2023-03-06T05:09:40.001Z,99568.84
2023-03-06T05:12:42.896Z,99569.16
2023-03-06T05:15:45.439Z,99564.09
2023-03-06T05:18:50.509Z,99544.84
2023-03-06T05:21:53.276Z,99571.66
2023-03-06T05:24:55.899Z,99555.91
2023-03-06T05:27:58.575Z,99577.22
2023-03-06T05:31:03.404Z,99568.91
2023-03-06T05:34:06.049Z,99573.72
2023-03-06T05:37:08.971Z,99570.47
2023-03-06T05:40:12.229Z,99574.72
2023-03-06T05:43:14.838Z,99568.03
2023-03-06T05:46:17.421Z,99567.66
2023-03-06T05:49:20.024Z,99564.22
2023-03-06T05:52:22.719Z,99562.66
2023-03-06T05:55:25.466Z,99560.03
2023-03-06T05:58:28.943Z,99564.97
2023-03-06T06:01:31.645Z,99563.97
2023-03-06T06:04:34.354Z,99559.53
2023-03-06T06:07:37.002Z,99563.03
2023-03-06T06:10:43.943Z,99560.91
2023-03-06T06:13:48.564Z,99563.34
2023-03-06T06:16:51.216Z,99568.25
2023-03-06T06:19:53.812Z,99555.38
2023-03-06T06:22:56.412Z,99524.22
2023-03-06T06:26:04.133Z,99553.19
2023-03-06T06:29:06.819Z,99551.31
2023-03-06T06:32:09.449Z,99550.75
2023-03-06T06:35:12.081Z,99553.25
2023-03-06T06:38:14.690Z,99549.84
2023-03-06T06:44:39.897Z,99531.25
2023-03-06T06:47:43.311Z,99521.13
2023-03-06T06:50:46.249Z,99518.09
2023-03-06T06:53:52.125Z,99531.50
2023-03-06T06:56:54.888Z,99549.75
2023-03-06T06:59:57.467Z,99555.00
2023-03-06T07:03:00.147Z,99554.59
2023-03-06T07:06:03.031Z,99534.75
2023-03-06T07:09:05.888Z,99548.34
2023-03-06T07:12:08.814Z,99549.78
2023-03-06T07:15:15.940Z,99546.72
2023-03-06T07:18:21.180Z,99547.56
2023-03-06T07:21:23.804Z,99529.31
2023-03-06T07:24:26.829Z,99553.00
2023-03-06T07:27:29.488Z,99564.75
2023-03-06T07:30:32.130Z,99560.69
2023-03-06T07:33:34.729Z,99560.06
2023-03-06T07:36:37.243Z,99558.63
2023-03-06T07:39:39.855Z,99555.81
2023-03-06T07:42:42.471Z,99546.06
2023-03-06T07:45:56.431Z,99533.53
2023-03-06T07:48:59.181Z,99540.75
2023-03-06T07:52:04.865Z,99484.00
2023-03-06T07:55:08.203Z,99551.06
2023-03-06T07:58:11.204Z,99503.81
2023-03-06T08:01:17.310Z,99551.25
2023-03-06T08:04:19.938Z,99541.19
2023-03-06T08:07:23.396Z,99531.00
2023-03-06T08:10:26.132Z,99523.75
2023-03-06T08:13:28.812Z,99537.69
2023-03-06T08:16:31.682Z,99535.03
2023-03-06T08:19:34.478Z,99514.97
2023-03-06T08:22:37.294Z,99518.09
2023-03-06T08:25:39.977Z,99528.88
2023-03-06T08:28:43.276Z,99531.78
2023-03-06T08:31:46.984Z,99517.72
2023-03-06T08:34:49.724Z,99523.28
2023-03-06T08:37:52.324Z,99535.75
2023-03-06T08:40:54.979Z,99517.53
2023-03-06T08:43:57.933Z,99534.16
2023-03-06T08:47:00.610Z,99531.69
2023-03-06T08:50:04.011Z,99491.00
2023-03-06T08:53:06.629Z,99524.81
2023-03-06T08:56:19.402Z,99516.72
2023-03-06T08:59:22.470Z,99500.97
2023-03-06T09:02:25.395Z,99504.41
2023-03-06T09:05:28.227Z,99505.16
2023-03-06T09:08:30.889Z,99464.13
2023-03-06T09:11:34.487Z,99438.06
2023-03-06T09:14:37.453Z,99450.88
2023-03-06T09:17:40.567Z,99446.78
2023-03-06T09:20:43.241Z,99423.19
2023-03-06T09:23:45.911Z,99447.38
2023-03-06T09:26:51.440Z,99442.63
2023-03-06T09:29:57.957Z,99439.59
2023-03-06T09:33:01.272Z,99446.16
2023-03-06T09:36:04.882Z,99460.38
2023-03-06T09:39:07.861Z,99483.78
2023-03-06T09:42:20.348Z,99481.13
2023-03-06T09:45:22.973Z,99486.94
2023-03-06T09:48:39.293Z,99489.72
2023-03-06T09:52:23.613Z,99486.44
2023-03-06T09:55:29.133Z,99473.59
2023-03-06T09:59:04.638Z,99459.59
2023-03-06T10:02:24.559Z,99472.13
2023-03-06T10:05:33.065Z,99475.88
2023-03-06T10:08:41.534Z,99478.16
2023-03-06T10:11:53.073Z,99469.25
2023-03-06T10:15:03.256Z,99464.25
2023-03-06T10:18:05.894Z,99463.41
2023-03-06T10:21:21.486Z,99462.31
2023-03-06T10:24:30.571Z,99453.50
2023-03-06T10:27:58.018Z,99446.00
2023-03-06T10:31:15.502Z,99438.50
2023-03-06T10:34:28.539Z,99435.03
2023-03-06T10:37:32.577Z,99421.19
2023-03-06T10:40:42.224Z,99418.66
2023-03-06T10:44:05.579Z,99410.50
2023-03-06T10:47:27.728Z,99398.22
2023-03-06T10:50:31.534Z,99409.03
2023-03-06T10:53:34.513Z,99384.47
2023-03-06T10:56:39.948Z,99392.22
2023-03-06T11:00:00.402Z,99380.38
2023-03-06T11:03:16.403Z,99367.63
2023-03-06T11:06:34.768Z,99359.59
2023-03-06T11:09:37.492Z,99355.53
2023-03-06T11:12:41.542Z,99355.22
2023-03-06T11:16:01.979Z,99341.63
2023-03-06T11:19:17.781Z,99347.75
2023-03-06T11:22:20.363Z,99355.47
2023-03-06T11:25:28.200Z,99335.78
2023-03-06T11:28:33.925Z,99347.47
2023-03-06T11:32:07.182Z,99326.03
2023-03-06T11:35:13.904Z,99326.41
2023-03-06T11:38:32.324Z,99323.66
2023-03-06T11:41:54.355Z,99327.13
2023-03-06T11:45:16.071Z,99322.16
2023-03-06T11:48:23.809Z,99310.31
2023-03-06T11:51:34.756Z,99298.84
2023-03-06T11:54:37.434Z,99295.41
2023-03-06T11:58:01.314Z,99280.56
2023-03-06T12:01:13.755Z,99286.94
2023-03-06T12:04:41.527Z,99280.84
2023-03-06T12:07:53.150Z,99271.09
2023-03-06T12:11:10.625Z,99274.97
2023-03-06T12:14:20.445Z,99275.56
2023-03-06T12:17:43.014Z,99267.75
2023-03-06T12:21:00.904Z,99265.34
2023-03-06T12:24:21.633Z,99257.47
2023-03-06T12:27:54.219Z,99254.84
2023-03-06T12:31:16.006Z,99248.59
2023-03-06T12:34:26.691Z,99244.56
2023-03-06T12:38:09.471Z,99236.91
2023-03-06T12:41:32.143Z,99235.66
2023-03-06T12:45:12.016Z,99236.44
2023-03-06T12:48:25.923Z,99234.88
2023-03-06T12:51:29.256Z,99232.50
2023-03-06T12:54:36.297Z,99219.00
2023-03-06T12:57:38.872Z,99208.19
2023-03-06T13:01:05.007Z,99227.22
2023-03-06T13:04:13.416Z,99225.13
2023-03-06T13:07:34.019Z,99215.97
2023-03-06T13:10:39.670Z,99196.81
2023-03-06T13:13:44.217Z,99212.25
2023-03-06T13:16:47.036Z,99211.72
2023-03-06T13:19:58.495Z,99205.75
2023-03-06T13:23:32.125Z,99207.09
2023-03-06T13:26:34.932Z,99207.59
2023-03-06T13:29:37.548Z,99219.81
2023-03-06T13:32:40.335Z,99215.03
2023-03-06T13:35:42.906Z,99210.66
2023-03-06T13:38:45.492Z,99205.19
2023-03-06T13:42:00.220Z,99214.88
2023-03-06T13:45:25.727Z,99201.97
2023-03-06T13:48:45.168Z,99194.22
2023-03-06T13:51:54.277Z,99198.06
2023-03-06T13:55:18.075Z,99196.22
2023-03-06T13:58:26.652Z,99194.97
2023-03-06T14:01:53.957Z,99193.75
2023-03-06T14:05:03.570Z,99187.59
2023-03-06T14:08:15.374Z,99171.06
2023-03-06T14:11:21.543Z,99162.81
2023-03-06T14:14:32.140Z,99173.38
2023-03-06T14:17:38.187Z,99176.22
2023-03-06T14:20:43.809Z,99166.34
2023-03-06T14:23:47.322Z,99183.66
2023-03-06T14:26:51.951Z,99185.31
2023-03-06T14:30:09.288Z,99177.97
2023-03-06T14:33:12.278Z,99186.13
2023-03-06T14:36:18.004Z,99175.75
2023-03-06T14:39:21.371Z,99181.53
2023-03-06T14:42:28.878Z,99160.16
2023-03-06T14:45:31.409Z,99169.81
2023-03-06T14:48:44.547Z,99172.69
2023-03-06T14:51:53.172Z,99174.91
2023-03-06T14:54:55.781Z,99165.22
2023-03-06T14:57:59.844Z,99159.94
2023-03-06T15:01:06.244Z,99157.06
2023-03-06T15:04:31.957Z,99166.06
2023-03-06T15:07:35.411Z,99165.72
2023-03-06T15:10:38.930Z,99158.56
2023-03-06T15:13:41.555Z,99162.94
2023-03-06T15:16:44.188Z,99166.25
2023-03-06T15:19:48.778Z,99171.44
2023-03-06T15:22:51.476Z,99170.75
2023-03-06T15:25:55.631Z,99178.16
2023-03-06T15:29:09.617Z,99159.03
2023-03-06T15:32:29.589Z,99174.72
2023-03-06T15:35:37.876Z,99158.50
2023-03-06T15:38:43.379Z,99170.34
2023-03-06T15:41:45.954Z,99180.59
2023-03-06T15:44:53.118Z,99169.41
2023-03-06T15:47:56.067Z,99170.34
2023-03-06T15:50:58.692Z,99162.44
2023-03-06T15:54:11.891Z,99176.00
2023-03-06T15:57:25.302Z,99174.34
2023-03-06T16:00:38.617Z,99169.97
2023-03-06T16:03:41.174Z,99163.75
2023-03-06T16:06:47.017Z,99164.44
2023-03-06T16:09:49.626Z,99161.47
2023-03-06T16:12:57.577Z,99169.88
2023-03-06T16:16:00.214Z,99165.41
2023-03-06T16:19:06.044Z,99160.34
2023-03-06T16:22:10.554Z,99160.00
2023-03-06T16:25:14.493Z,99155.84
2023-03-06T16:28:17.671Z,99148.50
2023-03-06T16:31:20.278Z,99153.56
2023-03-06T16:34:23.428Z,99157.22
2023-03-06T16:37:26.089Z,99155.13
2023-03-06T16:40:37.733Z,99163.03
2023-03-06T16:43:40.518Z,99174.72
2023-03-06T16:46:46.026Z,99162.91
2023-03-06T16:49:49.042Z,99173.75
2023-03-06T16:52:53.032Z,99169.59
2023-03-06T16:55:55.667Z,99172.16
2023-03-06T16:58:58.433Z,99172.00
2023-03-06T17:02:01.080Z,99178.13
2023-03-06T17:05:04.709Z,99183.66
2023-03-06T17:08:07.284Z,99187.84
2023-03-06T17:11:09.847Z,99176.66
2023-03-06T17:14:12.960Z,99186.25
2023-03-06T17:17:17.238Z,99183.97
2023-03-06T17:20:20.669Z,99173.03
2023-03-06T17:23:28.816Z,99166.69
2023-03-06T17:26:31.478Z,99166.59
2023-03-06T17:29:34.193Z,99176.88
2023-03-06T17:32:38.399Z,99167.91
2023-03-06T17:35:41.032Z,99178.72
2023-03-06T17:38:43.909Z,99186.09
2023-03-06T17:41:46.611Z,99174.81
2023-03-06T17:44:49.337Z,99159.03
2023-03-06T17:47:55.920Z,99183.09
2023-03-06T17:50:58.987Z,99187.13
2023-03-06T17:54:01.921Z,99185.88
2023-03-06T17:57:05.833Z,99187.69
2023-03-06T18:00:09.582Z,99191.59
2023-03-06T18:03:15.084Z,99187.84
2023-03-06T18:06:18.799Z,99186.81
2023-03-06T18:09:21.395Z,99203.81
2023-03-06T18:12:24.181Z,99203.81
2023-03-06T18:15:26.876Z,99186.28
2023-03-06T18:18:30.236Z,99194.78
2023-03-06T18:21:32.870Z,99192.00
2023-03-06T18:24:36.597Z,99205.03
2023-03-06T18:27:39.374Z,99194.97
2023-03-06T18:30:42.521Z,99201.47
2023-03-06T18:33:47.752Z,99199.22
2023-03-06T18:36:52.507Z,99193.31
2023-03-06T18:39:55.371Z,99186.19
2023-03-06T18:42:58.588Z,99195.50
2023-03-06T18:46:01.665Z,99200.78
2023-03-06T18:49:05.604Z,99200.59
2023-03-06T18:52:08.435Z,99209.78
2023-03-06T18:55:11.368Z,99213.63
2023-03-06T18:58:14.237Z,99216.91
2023-03-06T19:01:17.478Z,99218.81
2023-03-06T19:04:20.308Z,99222.97
2023-03-06T19:07:23.918Z,99225.41
2023-03-06T19:10:27.675Z,99222.47
2023-03-06T19:13:31.108Z,99221.78
2023-03-06T19:16:33.859Z,99221.00
2023-03-06T19:19:36.670Z,99218.41
2023-03-06T19:22:39.242Z,99223.53
2023-03-06T19:25:41.835Z,99217.72
2023-03-06T19:28:44.797Z,99231.59
2023-03-06T19:31:47.655Z,99224.47
2023-03-06T19:34:50.302Z,99227.78
2023-03-06T19:37:53.581Z,99233.09
2023-03-06T19:40:57.433Z,99238.66
2023-03-06T19:44:02.698Z,99234.56
2023-03-06T19:47:05.465Z,99246.34
2023-03-06T19:50:09.020Z,99236.63
2023-03-06T19:53:11.695Z,99253.66
2023-03-06T19:56:23.615Z,99244.19
2023-03-06T19:59:26.377Z,99250.03
2023-03-06T20:02:29.253Z,99251.78
2023-03-06T20:05:31.872Z,99262.59
2023-03-06T20:08:35.388Z,99272.72
2023-03-06T20:11:38.796Z,99260.66
2023-03-06T20:14:41.821Z,99264.13
2023-03-06T20:17:44.605Z,99290.50
2023-03-06T20:21:01.299Z,99280.63
2023-03-06T20:24:05.724Z,99293.38
2023-03-06T20:27:08.543Z,99285.47
2023-03-06T20:30:11.785Z,99285.47
2023-03-06T20:33:15.482Z,99289.28
2023-03-06T20:36:27.607Z,99281.09
2023-03-06T20:39:30.480Z,99300.56
2023-03-06T20:42:34.243Z,99311.88
2023-03-06T20:45:37.093Z,99321.72
2023-03-06T20:48:41.091Z,99310.22
2023-03-06T20:51:44.333Z,99314.72
2023-03-06T20:54:47.095Z,99303.59
2023-03-06T20:57:50.981Z,99284.22
2023-03-06T21:00:53.739Z,99294.50
2023-03-06T21:03:57.701Z,99294.91
2023-03-06T21:07:00.914Z,99294.91
2023-03-06T21:10:03.767Z,99271.25
2023-03-06T21:13:06.465Z,99294.91
2023-03-06T21:16:14.879Z,99288.63
2023-03-06T21:19:17.833Z,99283.38
2023-03-06T21:22:20.358Z,99282.56
2023-03-06T21:25:23.246Z,99284.75
2023-03-06T21:28:26.007Z,99280.53
2023-03-06T21:31:29.297Z,99274.66
2023-03-06T21:34:31.891Z,99275.28
2023-03-06T21:37:34.498Z,99290.63
2023-03-06T21:40:37.119Z,99280.13
2023-03-06T21:43:40.189Z,99266.75
2023-03-06T21:46:42.769Z,99287.78
2023-03-06T21:49:45.390Z,99283.31
2023-03-06T21:52:48.001Z,99274.44
2023-03-06T21:55:50.579Z,99256.19
2023-03-06T21:58:53.411Z,99259.81
2023-03-06T22:01:55.983Z,99265.09
2023-03-06T22:04:58.597Z,99264.09
2023-03-06T22:08:01.390Z,99274.81
2023-03-06T22:11:12.813Z,99271.22
2023-03-06T22:14:15.515Z,99273.22
2023-03-06T22:17:18.362Z,99261.47
2023-03-06T22:20:20.950Z,99244.53
2023-03-06T22:23:23.730Z,99262.50
2023-03-06T22:26:28.143Z,99248.53
2023-03-06T22:29:30.652Z,99270.59
2023-03-06T22:32:33.416Z,99276.66
2023-03-06T22:35:36.132Z,99283.38
2023-03-06T22:38:41.751Z,99280.53
2023-03-06T22:41:44.378Z,99268.19
2023-03-06T22:44:46.920Z,99261.91
2023-03-06T22:47:50.799Z,99257.06
2023-03-06T22:50:54.411Z,99191.59
2023-03-06T22:53:57.088Z,99253.81
2023-03-06T22:56:59.646Z,99247.94
2023-03-06T23:00:02.280Z,99253.63
2023-03-06T23:03:04.893Z,99258.06
2023-03-06T23:06:11.970Z,99264.34
2023-03-06T23:09:21.653Z,99253.00
2023-03-06T23:12:44.188Z,99256.06
2023-03-06T23:16:06.960Z,99253.41
2023-03-06T23:19:28.142Z,99247.97
2023-03-06T23:22:49.448Z,99229.78
2023-03-06T23:26:15.987Z,99253.25
2023-03-06T23:29:18.603Z,99261.16
2023-03-06T23:32:21.469Z,99269.84
2023-03-06T23:35:24.170Z,99270.44
2023-03-06T23:38:27.311Z,99272.06
2023-03-06T23:41:30.155Z,99271.88
2023-03-06T23:44:34.983Z,99267.03
2023-03-06T23:47:37.640Z,99264.78
2023-03-06T23:50:40.513Z,99274.31
2023-03-06T23:53:44.374Z,99273.50
2023-03-06T23:56:46.864Z,99270.06
2023-03-06T23:59:49.456Z,99266.59
